Medora, North Dakota
Current Conditions -  °F | °C
As of 10:56 AM on Thursday 23 Oct 2014 (Local Time) from KDIK Reporting Station
Clear Clear  
Wind Chill: 64°   Ceiling: Unl
Heat Index: 64°   Visibility: 10mi
Dew Point: 32°   Wind: 12mph
Humidity: 30%   Direction: 220°SW
Pressure: 29.86"   Gusts: NA
Location:  46.91°N, 103.52°W
Report Text: KDIK 231656Z AUTO 22010KT 10SM CLR 18/00 A2986 RMK AO2 SLP113 T01780000
Loading
Personal Weather Stations






























Interactive Weather Map
Tropical Storm Tracking
New forecast layout! Learn more

10-Day Weather Forecast

Advertisements
Track Severe Weather on mobile